createdAt,value
2022-09-17T00:02:56.434Z,82.80
2022-09-17T00:06:06.572Z,82.02
2022-09-17T00:09:10.070Z,81.54
2022-09-17T00:12:12.679Z,80.97
2022-09-17T00:15:15.933Z,81.23
2022-09-17T00:18:18.829Z,81.80
2022-09-17T00:21:24.010Z,83.07
2022-09-17T00:24:26.770Z,84.37
2022-09-17T00:27:29.334Z,82.93
2022-09-17T00:30:32.096Z,82.35
2022-09-17T00:33:34.686Z,83.02
2022-09-17T00:36:40.448Z,82.35
2022-09-17T00:39:45.106Z,83.42
2022-09-17T00:42:47.855Z,84.34
2022-09-17T00:45:53.384Z,82.77
2022-09-17T00:48:58.375Z,83.07
2022-09-17T00:52:07.177Z,83.28
2022-09-17T00:55:15.266Z,84.69
2022-09-17T00:58:22.749Z,83.88
2022-09-17T01:01:26.030Z,82.95
2022-09-17T01:04:29.191Z,84.03
2022-09-17T01:07:49.374Z,83.73
2022-09-17T01:11:13.894Z,82.60
2022-09-17T01:14:31.017Z,82.80
2022-09-17T01:17:48.893Z,84.24
2022-09-17T01:21:29.985Z,82.79
2022-09-17T01:24:48.521Z,82.80
2022-09-17T01:28:10.308Z,83.18
2022-09-17T01:31:36.145Z,82.46
2022-09-17T01:34:47.047Z,81.77
2022-09-17T01:38:00.867Z,81.58
2022-09-17T01:41:07.859Z,83.77
2022-09-17T01:44:16.312Z,84.30
2022-09-17T01:47:24.450Z,84.89
2022-09-17T01:50:31.412Z,84.09
2022-09-17T01:53:40.925Z,83.73
2022-09-17T01:56:49.623Z,83.56
2022-09-17T01:59:56.419Z,83.28
2022-09-17T02:03:03.398Z,84.14
2022-09-17T02:06:12.144Z,83.92
2022-09-17T02:09:18.981Z,81.46
2022-09-17T02:12:29.350Z,82.24
2022-09-17T02:15:36.178Z,81.73
2022-09-17T02:18:46.128Z,82.63
2022-09-17T02:21:58.542Z,81.18
2022-09-17T02:25:05.812Z,82.95
2022-09-17T02:28:16.056Z,81.25
2022-09-17T02:31:19.383Z,83.01
2022-09-17T02:34:27.539Z,80.91
2022-09-17T02:37:30.236Z,82.05
2022-09-17T02:40:38.856Z,83.29
2022-09-17T02:43:52.625Z,84.07
2022-09-17T02:47:13.137Z,84.92
2022-09-17T02:50:42.866Z,84.15
2022-09-17T02:53:56.769Z,83.35
2022-09-17T02:57:13.681Z,81.83
2022-09-17T03:00:18.564Z,83.26
2022-09-17T03:03:24.973Z,83.49
2022-09-17T03:06:28.961Z,83.23
2022-09-17T03:09:31.697Z,84.61
2022-09-17T03:12:34.489Z,84.11
2022-09-17T03:15:37.160Z,82.98
2022-09-17T03:18:39.865Z,83.19
2022-09-17T03:21:43.786Z,83.81
2022-09-17T03:24:46.565Z,82.56
2022-09-17T03:27:49.321Z,82.87
2022-09-17T03:30:51.921Z,83.32
2022-09-17T03:33:54.492Z,82.02
2022-09-17T03:36:58.455Z,82.58
2022-09-17T03:40:01.481Z,82.88
2022-09-17T03:43:04.800Z,82.92
2022-09-17T03:46:07.719Z,82.81
2022-09-17T03:49:10.573Z,83.69
2022-09-17T03:52:14.659Z,83.41
2022-09-17T03:55:17.591Z,83.08
2022-09-17T03:58:20.357Z,82.38
2022-09-17T04:01:23.042Z,82.81
2022-09-17T04:04:26.228Z,82.22
2022-09-17T04:07:30.177Z,83.29
2022-09-17T04:10:32.815Z,83.01
2022-09-17T04:13:35.575Z,83.02
2022-09-17T04:16:38.177Z,81.62
2022-09-17T04:19:40.747Z,82.41
2022-09-17T04:22:46.775Z,82.68
2022-09-17T04:25:49.788Z,81.08
2022-09-17T04:28:52.491Z,80.66
2022-09-17T04:31:55.182Z,81.61
2022-09-17T04:34:58.029Z,81.37
2022-09-17T04:38:02.075Z,80.43
2022-09-17T04:41:07.352Z,80.19
2022-09-17T04:44:10.385Z,80.25
2022-09-17T04:47:12.999Z,80.73
2022-09-17T04:50:15.919Z,81.24
2022-09-17T04:53:20.365Z,81.21
2022-09-17T04:56:22.991Z,80.53
2022-09-17T04:59:25.869Z,79.52
2022-09-17T05:02:28.571Z,80.41
2022-09-17T05:05:31.317Z,81.42
2022-09-17T05:08:35.300Z,81.11
2022-09-17T05:11:38.015Z,82.32
2022-09-17T05:14:40.718Z,83.00
2022-09-17T05:17:43.367Z,82.29
2022-09-17T05:20:46.122Z,81.44
2022-09-17T05:23:50.580Z,82.48
2022-09-17T05:26:53.211Z,81.86
2022-09-17T05:29:55.923Z,79.96
2022-09-17T05:33:03.077Z,81.00
2022-09-17T05:36:06.000Z,81.34
2022-09-17T05:39:10.677Z,81.82
2022-09-17T05:42:13.286Z,81.01
2022-09-17T05:45:16.113Z,80.33
2022-09-17T05:48:18.691Z,81.69
2022-09-17T05:51:21.579Z,81.31
2022-09-17T05:54:25.595Z,80.11
2022-09-17T05:57:30.410Z,81.49
2022-09-17T06:00:33.140Z,81.99
2022-09-17T06:03:35.764Z,82.53
2022-09-17T06:06:39.230Z,79.85
2022-09-17T06:09:43.215Z,81.99
2022-09-17T06:12:45.875Z,81.97
2022-09-17T06:15:51.916Z,82.02
2022-09-17T06:18:54.935Z,81.61
2022-09-17T06:21:57.579Z,81.90
2022-09-17T06:25:02.499Z,81.11
2022-09-17T06:28:05.826Z,80.88
2022-09-17T06:31:10.519Z,80.95
2022-09-17T06:34:13.793Z,80.86
2022-09-17T06:37:16.836Z,80.34
2022-09-17T06:40:23.316Z,79.99
2022-09-17T06:43:27.326Z,79.16
2022-09-17T06:46:30.143Z,78.92
2022-09-17T06:49:32.812Z,79.11
2022-09-17T06:52:35.551Z,80.29
2022-09-17T06:55:39.673Z,79.93
2022-09-17T06:58:43.725Z,79.61
2022-09-17T07:01:47.491Z,78.98
2022-09-17T07:04:50.172Z,79.59
2022-09-17T07:07:53.277Z,80.01
2022-09-17T07:10:58.161Z,79.75
2022-09-17T07:14:00.822Z,78.23
2022-09-17T07:17:03.766Z,75.48
2022-09-17T07:20:07.244Z,76.85
2022-09-17T07:23:09.927Z,76.65
2022-09-17T07:26:16.418Z,75.96
2022-09-17T07:29:21.777Z,76.65
2022-09-17T07:32:25.301Z,74.54
2022-09-17T07:35:27.893Z,74.81
2022-09-17T07:38:32.083Z,75.17
2022-09-17T07:41:36.414Z,74.82
2022-09-17T07:44:39.107Z,75.22
2022-09-17T07:47:42.455Z,73.46
2022-09-17T07:50:45.297Z,73.55
2022-09-17T07:53:50.170Z,74.28
2022-09-17T07:56:54.114Z,74.35
2022-09-17T07:59:56.679Z,74.60
2022-09-17T08:02:59.806Z,71.96
2022-09-17T08:06:07.054Z,71.39
2022-09-17T08:09:10.795Z,71.76
2022-09-17T08:12:14.902Z,70.39
2022-09-17T08:15:18.037Z,69.54
2022-09-17T08:18:20.652Z,69.92
2022-09-17T08:21:23.594Z,68.42
2022-09-17T08:24:26.741Z,67.97
2022-09-17T08:27:31.189Z,68.27
2022-09-17T08:30:33.904Z,67.26
2022-09-17T08:33:38.090Z,67.16
2022-09-17T08:36:40.851Z,66.76
2022-09-17T08:39:43.573Z,64.68
2022-09-17T08:42:55.095Z,64.59
2022-09-17T08:45:59.552Z,63.22
2022-09-17T08:49:09.260Z,63.24
2022-09-17T08:52:47.888Z,63.37
2022-09-17T08:55:57.852Z,65.12
2022-09-17T08:59:21.797Z,63.76
2022-09-17T09:02:34.167Z,62.33
2022-09-17T09:05:43.860Z,61.48
2022-09-17T09:08:51.633Z,61.46
2022-09-17T09:12:05.788Z,60.38
2022-09-17T09:15:22.842Z,60.89
2022-09-17T09:18:30.175Z,60.04
2022-09-17T09:21:45.037Z,60.76
2022-09-17T09:25:00.897Z,60.28
2022-09-17T09:28:18.832Z,60.92
2022-09-17T09:31:43.592Z,60.62
2022-09-17T09:34:49.213Z,59.79
2022-09-17T09:37:57.797Z,59.28
2022-09-17T09:41:08.209Z,59.48
2022-09-17T09:44:13.528Z,60.03
2022-09-17T09:47:34.246Z,62.38
2022-09-17T09:51:05.691Z,62.08
2022-09-17T09:54:25.018Z,60.87
2022-09-17T09:57:38.938Z,61.63
2022-09-17T10:00:43.691Z,59.42
2022-09-17T10:03:48.937Z,59.72
2022-09-17T10:06:54.757Z,57.97
2022-09-17T10:10:09.863Z,54.82
2022-09-17T10:13:14.875Z,54.66
2022-09-17T10:16:19.813Z,54.56
2022-09-17T10:19:25.643Z,59.67
2022-09-17T10:22:32.762Z,66.01
2022-09-17T10:25:36.244Z,69.26
2022-09-17T10:28:47.898Z,69.98
2022-09-17T10:31:51.999Z,70.62
2022-09-17T10:35:07.597Z,68.78
2022-09-17T10:38:28.997Z,67.19
2022-09-17T10:41:31.828Z,64.68
2022-09-17T10:44:36.703Z,63.08
2022-09-17T10:47:43.981Z,62.40
2022-09-17T10:50:51.414Z,60.09
2022-09-17T10:54:30.928Z,59.76
2022-09-17T10:57:48.962Z,59.71
2022-09-17T11:01:07.824Z,59.21
2022-09-17T11:04:30.780Z,56.54
2022-09-17T11:07:49.026Z,57.88
2022-09-17T11:10:59.421Z,57.67
2022-09-17T11:14:12.538Z,57.18
2022-09-17T11:17:36.816Z,54.96
2022-09-17T11:20:58.510Z,56.10
2022-09-17T11:24:36.076Z,57.33
2022-09-17T11:27:50.943Z,60.38
2022-09-17T11:31:02.708Z,63.26
2022-09-17T11:34:24.838Z,62.46
2022-09-17T11:37:32.596Z,61.74
2022-09-17T11:40:41.414Z,61.86
2022-09-17T11:43:50.276Z,59.62
2022-09-17T11:46:57.688Z,59.17
2022-09-17T11:50:10.448Z,57.15
2022-09-17T11:53:23.730Z,55.81
2022-09-17T11:56:32.315Z,54.44
2022-09-17T11:59:38.679Z,54.29
2022-09-17T12:02:50.141Z,51.06
2022-09-17T12:05:57.299Z,51.45
2022-09-17T12:09:04.632Z,49.87
2022-09-17T12:12:31.831Z,48.54
2022-09-17T12:15:41.668Z,49.36
2022-09-17T12:18:58.074Z,49.79
2022-09-17T12:22:05.686Z,50.96
2022-09-17T12:25:13.945Z,51.41
2022-09-17T12:28:26.862Z,52.99
2022-09-17T12:31:38.948Z,53.28
2022-09-17T12:34:53.984Z,52.46
2022-09-17T12:38:13.154Z,51.90
2022-09-17T12:41:21.597Z,48.85
2022-09-17T12:44:44.101Z,47.84
2022-09-17T12:48:23.854Z,47.48
2022-09-17T12:51:47.345Z,47.86
2022-09-17T12:55:16.697Z,48.38
2022-09-17T12:58:35.292Z,47.18
2022-09-17T13:01:47.780Z,47.65
2022-09-17T13:05:38.017Z,46.20
2022-09-17T13:09:28.246Z,46.39
2022-09-17T13:12:37.088Z,47.07
2022-09-17T13:15:48.002Z,45.47
2022-09-17T13:19:15.584Z,45.26
2022-09-17T13:22:21.631Z,46.84
2022-09-17T13:25:26.178Z,47.42
2022-09-17T13:28:40.310Z,49.26
2022-09-17T13:31:49.093Z,48.25
2022-09-17T13:34:53.214Z,48.85
2022-09-17T13:37:59.064Z,44.84
2022-09-17T13:41:21.790Z,42.80
2022-09-17T13:44:24.993Z,44.67
2022-09-17T13:47:30.561Z,44.20
2022-09-17T13:50:36.799Z,44.76
2022-09-17T13:53:39.583Z,46.59
2022-09-17T13:56:46.228Z,45.09
2022-09-17T13:59:57.577Z,45.90
2022-09-17T14:03:44.453Z,44.71
2022-09-17T14:06:53.561Z,44.17
2022-09-17T14:09:58.316Z,45.88
2022-09-17T14:13:25.134Z,47.09
2022-09-17T14:16:37.373Z,48.22
2022-09-17T14:19:51.584Z,45.68
2022-09-17T14:23:02.230Z,47.41
2022-09-17T14:26:11.169Z,46.65
2022-09-17T14:29:29.494Z,47.22
2022-09-17T14:32:39.404Z,46.27
2022-09-17T14:35:45.072Z,47.59
2022-09-17T14:38:53.064Z,47.28
2022-09-17T14:41:56.215Z,47.75
2022-09-17T14:45:01.583Z,48.62
2022-09-17T14:48:30.310Z,48.27
2022-09-17T14:51:33.065Z,48.14
2022-09-17T14:54:37.288Z,48.69
2022-09-17T14:57:43.950Z,49.30
2022-09-17T15:00:54.065Z,49.07
2022-09-17T15:04:11.627Z,49.02
2022-09-17T15:07:14.928Z,48.84
2022-09-17T15:10:21.164Z,48.64
2022-09-17T15:13:29.127Z,48.08
2022-09-17T15:16:33.314Z,49.12
2022-09-17T15:19:39.468Z,48.64
2022-09-17T15:22:45.507Z,49.16
2022-09-17T15:25:57.187Z,49.07
2022-09-17T15:29:01.257Z,50.34
2022-09-17T15:32:06.769Z,50.59
2022-09-17T15:35:23.210Z,51.66
2022-09-17T15:38:29.399Z,51.43
2022-09-17T15:41:34.717Z,51.15
2022-09-17T15:44:37.554Z,52.37
2022-09-17T15:47:55.179Z,53.03
2022-09-17T15:50:59.893Z,53.36
2022-09-17T15:54:08.668Z,53.55
2022-09-17T15:57:16.985Z,53.16
2022-09-17T16:00:20.466Z,53.55
2022-09-17T16:04:03.180Z,53.08
2022-09-17T16:07:39.146Z,52.92
2022-09-17T16:10:42.234Z,53.19
2022-09-17T16:13:47.011Z,53.98
2022-09-17T16:16:50.069Z,53.62
2022-09-17T16:19:52.881Z,54.80
2022-09-17T16:22:57.453Z,54.63
2022-09-17T16:26:00.152Z,54.41
2022-09-17T16:29:08.142Z,55.02
2022-09-17T16:32:12.069Z,55.76
2022-09-17T16:35:17.470Z,55.27
2022-09-17T16:38:20.600Z,56.33
2022-09-17T16:41:23.322Z,56.83
2022-09-17T16:44:27.420Z,57.04
2022-09-17T16:47:31.535Z,57.06
2022-09-17T16:50:35.875Z,56.70
2022-09-17T16:53:39.316Z,56.82
2022-09-17T16:56:42.306Z,56.63
2022-09-17T16:59:46.694Z,56.83
2022-09-17T17:02:54.113Z,57.02
2022-09-17T17:05:57.024Z,57.28
2022-09-17T17:09:01.126Z,57.62
2022-09-17T17:12:04.214Z,56.85
2022-09-17T17:15:11.137Z,58.27
2022-09-17T17:18:13.799Z,57.59
2022-09-17T17:21:16.566Z,57.77
2022-09-17T17:24:19.489Z,58.97
2022-09-17T17:27:22.233Z,58.93
2022-09-17T17:30:26.169Z,59.44
2022-09-17T17:33:28.972Z,59.22
2022-09-17T17:36:32.303Z,59.19
2022-09-17T17:39:35.166Z,59.09
2022-09-17T17:42:47.214Z,60.23
2022-09-17T17:45:51.174Z,61.37
2022-09-17T17:48:53.921Z,61.60
2022-09-17T17:51:56.663Z,61.60
2022-09-17T17:54:59.281Z,61.70
2022-09-17T17:58:01.979Z,62.29
2022-09-17T18:01:12.503Z,61.90
2022-09-17T18:04:15.260Z,63.15
2022-09-17T18:07:17.899Z,63.06
2022-09-17T18:10:21.058Z,65.60
2022-09-17T18:13:23.950Z,65.37
2022-09-17T18:16:29.123Z,64.44
2022-09-17T18:19:31.788Z,65.14
2022-09-17T18:22:34.495Z,65.09
2022-09-17T18:25:37.133Z,65.23
2022-09-17T18:28:39.860Z,65.47
2022-09-17T18:31:45.111Z,65.55
2022-09-17T18:34:47.810Z,65.26
2022-09-17T18:37:50.542Z,65.97
2022-09-17T18:40:53.614Z,66.33
2022-09-17T18:43:56.727Z,65.73
2022-09-17T18:47:00.691Z,66.36
2022-09-17T18:50:03.578Z,66.39
2022-09-17T18:53:06.494Z,67.54
2022-09-17T18:56:16.782Z,67.67
2022-09-17T18:59:19.371Z,67.41
2022-09-17T19:02:23.549Z,67.19
2022-09-17T19:05:26.843Z,68.52
2022-09-17T19:08:29.786Z,69.43
2022-09-17T19:11:32.387Z,69.97
2022-09-17T19:14:34.999Z,70.02
2022-09-17T19:17:38.946Z,69.20
2022-09-17T19:20:41.881Z,69.51
2022-09-17T19:23:46.631Z,69.93
2022-09-17T19:26:51.099Z,70.07
2022-09-17T19:29:55.121Z,69.68
2022-09-17T19:32:59.737Z,70.60
2022-09-17T19:36:03.156Z,71.61
2022-09-17T19:39:06.134Z,70.95
2022-09-17T19:42:08.806Z,70.92
2022-09-17T19:45:11.848Z,71.44
2022-09-17T19:48:21.013Z,70.77
2022-09-17T19:51:29.726Z,71.84
2022-09-17T19:54:32.351Z,70.98
2022-09-17T19:57:34.991Z,71.94
2022-09-17T20:00:37.600Z,71.87
2022-09-17T20:03:42.859Z,72.07
2022-09-17T20:06:45.768Z,71.28
2022-09-17T20:09:48.440Z,71.33
2022-09-17T20:12:51.260Z,70.67
2022-09-17T20:15:54.004Z,71.98
2022-09-17T20:18:58.149Z,71.88
2022-09-17T20:22:01.015Z,72.14
2022-09-17T20:25:03.869Z,72.00
2022-09-17T20:28:06.416Z,72.81
2022-09-17T20:31:12.349Z,72.93
2022-09-17T20:34:16.373Z,72.64
2022-09-17T20:37:44.411Z,72.98
2022-09-17T20:40:41.662Z,72.02
2022-09-17T20:43:46.233Z,72.17
2022-09-17T20:46:49.216Z,72.63
2022-09-17T20:49:55.431Z,72.19
2022-09-17T20:52:58.777Z,72.46
2022-09-17T20:56:03.431Z,72.01
2022-09-17T20:59:14.490Z,71.92
2022-09-17T21:02:18.871Z,72.32
2022-09-17T21:05:22.990Z,73.23
2022-09-17T21:08:25.603Z,71.96
2022-09-17T21:11:29.379Z,72.25
2022-09-17T21:14:32.777Z,72.78
2022-09-17T21:17:36.487Z,73.03
2022-09-17T21:20:40.471Z,74.42
2022-09-17T21:23:44.364Z,74.24
2022-09-17T21:26:47.467Z,74.30
2022-09-17T21:29:50.168Z,75.54
2022-09-17T21:32:53.350Z,74.92
2022-09-17T21:35:57.403Z,73.82
2022-09-17T21:39:01.928Z,74.07
2022-09-17T21:42:04.966Z,75.39
2022-09-17T21:45:08.086Z,75.89
2022-09-17T21:48:10.931Z,75.47
2022-09-17T21:51:17.319Z,75.50
2022-09-17T21:54:20.143Z,75.36
2022-09-17T21:57:22.806Z,75.18
2022-09-17T22:00:27.300Z,75.74
2022-09-17T22:03:30.133Z,75.99
2022-09-17T22:06:35.157Z,75.14
2022-09-17T22:09:38.052Z,75.39
2022-09-17T22:12:40.829Z,74.76
2022-09-17T22:15:43.678Z,75.44
2022-09-17T22:18:48.564Z,74.73
2022-09-17T22:21:56.286Z,75.63
2022-09-17T22:24:59.066Z,76.32
2022-09-17T22:28:19.993Z,76.14
2022-09-17T22:31:24.151Z,77.05
2022-09-17T22:34:27.086Z,75.48
2022-09-17T22:37:31.043Z,76.68
2022-09-17T22:40:33.723Z,76.57
2022-09-17T22:43:36.629Z,76.19
2022-09-17T22:46:40.848Z,76.68
2022-09-17T22:49:43.490Z,76.25
2022-09-17T22:52:49.504Z,76.47
2022-09-17T22:55:56.041Z,76.69
2022-09-17T22:58:59.587Z,75.38
2022-09-17T23:02:02.289Z,77.23
2022-09-17T23:05:05.755Z,76.06
2022-09-17T23:08:09.710Z,76.61
2022-09-17T23:11:18.290Z,76.57
2022-09-17T23:14:20.916Z,77.09
2022-09-17T23:17:27.290Z,76.64
2022-09-17T23:20:32.566Z,76.53
2022-09-17T23:23:38.260Z,77.06
2022-09-17T23:26:41.202Z,77.33
2022-09-17T23:29:43.767Z,78.40
2022-09-17T23:32:46.490Z,78.35
2022-09-17T23:35:49.103Z,79.37
2022-09-17T23:38:53.576Z,78.66
2022-09-17T23:41:57.778Z,80.08
2022-09-17T23:45:00.419Z,80.43
2022-09-17T23:48:03.333Z,79.49
2022-09-17T23:51:06.638Z,79.14
2022-09-17T23:54:10.989Z,80.46
2022-09-17T23:57:13.739Z,80.42
